createdAt,value
2022-12-05T00:01:34.678Z,98254.59
2022-12-05T00:04:06.471Z,98257.99
2022-12-05T00:06:35.374Z,98254.45
2022-12-05T00:09:05.342Z,98259.94
2022-12-05T00:11:36.270Z,98265.41
2022-12-05T00:14:06.920Z,98270.63
2022-12-05T00:16:38.526Z,98271.63
2022-12-05T00:19:08.675Z,98270.21
2022-12-05T00:21:37.335Z,98275.67
2022-12-05T00:24:08.428Z,98279.55
2022-12-05T00:26:36.191Z,98274.70
2022-12-05T00:29:04.508Z,98273.81
2022-12-05T00:31:32.431Z,98276.09
2022-12-05T00:34:02.585Z,98282.93
2022-12-05T00:36:33.618Z,98283.94
2022-12-05T00:39:05.905Z,98280.16
2022-12-05T00:41:33.667Z,98283.29
2022-12-05T00:44:03.516Z,98283.23
2022-12-05T00:46:33.454Z,98282.69
2022-12-05T00:49:04.008Z,98278.72
2022-12-05T00:51:39.114Z,98278.94
2022-12-05T00:54:11.458Z,98283.97
2022-12-05T00:56:39.810Z,98282.89
2022-12-05T00:59:08.659Z,98284.69
2022-12-05T01:01:40.645Z,98288.89
2022-12-05T01:04:12.456Z,98287.30
2022-12-05T01:06:41.453Z,98287.23
2022-12-05T01:09:13.081Z,98287.19
2022-12-05T01:11:41.826Z,98281.56
2022-12-05T01:14:12.681Z,98276.77
2022-12-05T01:16:43.492Z,98278.09
2022-12-05T01:19:22.081Z,98281.77
2022-12-05T01:21:50.615Z,98275.92
2022-12-05T01:24:19.910Z,98284.39
2022-12-05T01:26:48.284Z,98282.23
2022-12-05T01:29:19.610Z,98278.52
2022-12-05T01:31:48.131Z,98274.75
2022-12-05T01:34:18.115Z,98274.47
2022-12-05T01:36:45.912Z,98273.64
2022-12-05T01:39:13.596Z,98285.28
2022-12-05T01:41:49.347Z,98286.66
2022-12-05T01:44:25.004Z,98284.06
2022-12-05T01:46:53.991Z,98279.59
2022-12-05T01:49:33.043Z,98275.62
2022-12-05T01:52:20.895Z,98279.89
2022-12-05T01:54:51.759Z,98275.40
2022-12-05T01:57:19.426Z,98271.17
2022-12-05T01:59:55.757Z,98267.20
2022-12-05T02:02:24.013Z,98269.90
2022-12-05T02:05:00.072Z,98272.88
2022-12-05T02:07:28.518Z,98270.80
2022-12-05T02:09:56.847Z,98269.48
2022-12-05T02:12:25.447Z,98265.52
2022-12-05T02:15:07.634Z,98271.13
2022-12-05T02:18:14.482Z,98259.70
2022-12-05T02:21:17.111Z,98260.21
2022-12-05T02:24:16.646Z,98261.75
2022-12-05T02:27:00.014Z,98265.19
2022-12-05T02:30:00.924Z,98261.44
2022-12-05T02:32:49.373Z,98263.28
2022-12-05T02:35:42.203Z,98267.50
2022-12-05T02:38:33.663Z,98258.19
2022-12-05T02:41:06.679Z,98256.59
2022-12-05T02:43:42.149Z,98262.69
2022-12-05T02:46:14.633Z,98254.44
2022-12-05T02:48:45.504Z,98258.13
2022-12-05T02:51:17.866Z,98253.09
2022-12-05T02:53:48.194Z,98246.69
2022-12-05T02:56:16.333Z,98247.74
2022-12-05T02:58:55.693Z,98246.67
2022-12-05T03:01:27.676Z,98247.42
2022-12-05T03:03:58.178Z,98250.81
2022-12-05T03:06:42.595Z,98247.62
2022-12-05T03:09:18.739Z,98245.24
2022-12-05T03:11:54.844Z,98248.14
2022-12-05T03:14:39.768Z,98249.41
2022-12-05T03:17:11.843Z,98247.52
2022-12-05T03:20:02.140Z,98243.54
2022-12-05T03:22:49.806Z,98241.69
2022-12-05T03:25:18.144Z,98248.64
2022-12-05T03:28:07.885Z,98248.99
2022-12-05T03:30:38.473Z,98250.86
2022-12-05T03:33:26.492Z,98245.63
2022-12-05T03:36:08.285Z,98249.13
2022-12-05T03:38:57.841Z,98252.84
2022-12-05T03:42:00.755Z,98264.53
2022-12-05T03:44:51.829Z,98256.06
2022-12-05T03:47:46.049Z,98255.27
2022-12-05T03:50:27.229Z,98253.94
2022-12-05T03:53:19.506Z,98256.81
2022-12-05T03:55:38.840Z,98250.72
2022-12-05T03:58:14.863Z,98257.86
2022-12-05T04:00:46.081Z,98263.37
2022-12-05T04:03:25.047Z,98268.98
2022-12-05T04:05:59.610Z,98269.50
2022-12-05T04:08:35.728Z,98276.62
2022-12-05T04:11:07.594Z,98275.59
2022-12-05T04:13:49.575Z,98273.69
2022-12-05T04:16:47.508Z,98276.87
2022-12-05T04:19:26.592Z,98274.96
2022-12-05T04:21:56.959Z,98277.61
2022-12-05T04:24:49.718Z,98279.19
2022-12-05T04:27:38.980Z,98276.48
2022-12-05T04:30:11.733Z,98279.66
2022-12-05T04:33:04.766Z,98274.14
2022-12-05T04:35:37.901Z,98279.71
2022-12-05T04:38:16.902Z,98277.53
2022-12-05T04:40:52.834Z,98281.45
2022-12-05T04:43:22.925Z,98279.33
2022-12-05T04:45:52.876Z,98283.58
2022-12-05T04:48:24.035Z,98280.70
2022-12-05T04:50:54.076Z,98285.00
2022-12-05T04:53:26.138Z,98286.86
2022-12-05T04:55:57.680Z,98283.63
2022-12-05T04:58:27.903Z,98282.03
2022-12-05T05:01:21.641Z,98283.05
2022-12-05T05:04:00.789Z,98288.87
2022-12-05T05:06:30.141Z,98293.94
2022-12-05T05:08:58.579Z,98304.34
2022-12-05T05:11:30.290Z,98298.80
2022-12-05T05:13:59.627Z,98296.25
2022-12-05T05:16:33.215Z,98292.34
2022-12-05T05:19:03.698Z,98286.05
2022-12-05T05:21:35.691Z,98285.79
2022-12-05T05:24:04.758Z,98286.37
2022-12-05T05:26:40.107Z,98288.23
2022-12-05T05:29:09.369Z,98288.52
2022-12-05T05:31:38.719Z,98290.94
2022-12-05T05:34:09.853Z,98291.21
2022-12-05T05:36:38.685Z,98288.84
2022-12-05T05:39:11.730Z,98284.64
2022-12-05T05:41:41.293Z,98289.94
2022-12-05T05:44:09.291Z,98293.64
2022-12-05T05:46:37.319Z,98296.28
2022-12-05T05:49:07.135Z,98292.53
2022-12-05T05:51:35.041Z,98292.53
2022-12-05T05:54:03.011Z,98289.03
2022-12-05T05:56:30.848Z,98281.55
2022-12-05T05:59:02.826Z,98288.91
2022-12-05T06:01:31.419Z,98283.86
2022-12-05T06:03:59.249Z,98282.22
2022-12-05T06:06:27.613Z,98276.87
2022-12-05T06:08:55.290Z,98283.95
2022-12-05T06:11:27.118Z,98286.33
2022-12-05T06:13:57.188Z,98287.93
2022-12-05T06:16:25.191Z,98287.38
2022-12-05T06:18:54.079Z,98290.83
2022-12-05T06:21:22.838Z,98289.25
2022-12-05T06:23:50.954Z,98297.47
2022-12-05T06:26:21.573Z,98297.77
2022-12-05T06:28:49.266Z,98293.02
2022-12-05T06:31:21.826Z,98299.45
2022-12-05T06:33:49.611Z,98304.80
2022-12-05T06:36:20.791Z,98310.14
2022-12-05T06:38:48.798Z,98313.12
2022-12-05T06:41:19.930Z,98319.02
2022-12-05T06:43:48.965Z,98315.67
2022-12-05T06:46:16.734Z,98313.38
2022-12-05T06:48:44.808Z,98313.17
2022-12-05T06:51:16.171Z,98312.48
2022-12-05T06:53:44.652Z,98312.82
2022-12-05T06:56:16.331Z,98320.62
2022-12-05T06:58:47.633Z,98316.22
2022-12-05T07:01:42.238Z,98322.41
2022-12-05T07:04:19.764Z,98315.05
2022-12-05T07:06:51.141Z,98315.70
2022-12-05T07:09:24.972Z,98315.27
2022-12-05T07:11:52.899Z,98323.28
2022-12-05T07:16:51.175Z,98330.06
2022-12-05T07:19:18.774Z,98336.00
2022-12-05T07:21:46.574Z,98339.55
2022-12-05T07:24:14.445Z,98335.13
2022-12-05T07:26:42.200Z,98333.11
2022-12-05T07:29:10.315Z,98339.59
2022-12-05T07:31:38.265Z,98336.00
2022-12-05T07:34:05.963Z,98337.69
2022-12-05T07:36:34.663Z,98336.00
2022-12-05T07:39:02.420Z,98340.86
2022-12-05T07:41:33.221Z,98337.73
2022-12-05T07:44:02.885Z,98341.78
2022-12-05T07:46:30.622Z,98340.50
2022-12-05T07:48:58.548Z,98342.39
2022-12-05T07:51:26.293Z,98336.33
2022-12-05T07:53:53.995Z,98331.81
2022-12-05T07:56:22.392Z,98337.44
2022-12-05T07:58:51.076Z,98334.58
2022-12-05T08:01:22.924Z,98339.66
2022-12-05T08:03:52.996Z,98341.30
2022-12-05T08:06:24.593Z,98342.17
2022-12-05T08:08:53.876Z,98346.52
2022-12-05T08:11:30.982Z,98337.23
2022-12-05T08:13:59.150Z,98347.73
2022-12-05T08:16:30.017Z,98351.08
2022-12-05T08:19:01.112Z,98359.70
2022-12-05T08:21:29.308Z,98355.56
2022-12-05T08:23:57.417Z,98356.70
2022-12-05T08:26:29.701Z,98357.63
2022-12-05T08:29:02.079Z,98354.32
2022-12-05T08:31:34.175Z,98351.73
2022-12-05T08:34:02.535Z,98354.77
2022-12-05T08:36:31.345Z,98354.55
2022-12-05T08:39:04.326Z,98360.19
2022-12-05T08:41:33.459Z,98353.28
2022-12-05T08:44:04.963Z,98354.61
2022-12-05T08:46:35.692Z,98358.11
2022-12-05T08:49:05.204Z,98358.91
2022-12-05T08:51:33.355Z,98354.94
2022-12-05T08:54:05.502Z,98361.32
2022-12-05T08:56:33.740Z,98356.00
2022-12-05T08:59:05.762Z,98351.47
2022-12-05T09:01:32.951Z,98349.89
2022-12-05T09:04:03.508Z,98346.67
2022-12-05T09:06:32.609Z,98349.36
2022-12-05T09:09:05.185Z,98337.63
2022-12-05T09:11:37.270Z,98334.70
2022-12-05T09:14:04.908Z,98334.97
2022-12-05T09:16:39.253Z,98331.25
2022-12-05T09:19:12.729Z,98333.38
2022-12-05T09:21:41.633Z,98331.78
2022-12-05T09:24:12.030Z,98330.43
2022-12-05T09:26:41.052Z,98322.72
2022-12-05T09:29:16.174Z,98327.24
2022-12-05T09:31:41.809Z,98315.49
2022-12-05T09:34:10.049Z,98315.76
2022-12-05T09:36:38.031Z,98321.63
2022-12-05T09:39:09.638Z,98313.33
2022-12-05T09:42:19.370Z,98314.67
2022-12-05T09:45:10.989Z,98316.52
2022-12-05T09:48:09.496Z,98307.17
2022-12-05T09:50:48.497Z,98306.61
2022-12-05T09:53:30.471Z,98300.47
2022-12-05T09:56:03.841Z,98295.67
2022-12-05T09:58:54.189Z,98293.52
2022-12-05T10:01:32.921Z,98291.64
2022-12-05T10:04:34.583Z,98290.81
2022-12-05T10:07:23.652Z,98286.23
2022-12-05T10:09:59.739Z,98285.72
2022-12-05T10:12:52.496Z,98285.44
2022-12-05T10:15:54.427Z,98286.26
2022-12-05T10:18:49.933Z,98279.30
2022-12-05T10:22:01.400Z,98276.62
2022-12-05T10:24:40.055Z,98277.66
2022-12-05T10:27:12.432Z,98269.89
2022-12-05T10:30:05.897Z,98274.41
2022-12-05T10:32:39.167Z,98269.30
2022-12-05T10:35:18.241Z,98271.67
2022-12-05T10:37:53.206Z,98264.95
2022-12-05T10:40:21.276Z,98260.40
2022-12-05T10:42:50.643Z,98256.37
2022-12-05T10:45:23.977Z,98258.74
2022-12-05T10:47:57.209Z,98259.48
2022-12-05T10:50:36.169Z,98257.30
2022-12-05T10:53:06.488Z,98255.15
2022-12-05T10:56:00.099Z,98249.50
2022-12-05T10:58:24.157Z,98251.38
2022-12-05T11:00:59.121Z,98240.91
2022-12-05T11:03:41.924Z,98247.05
2022-12-05T11:06:26.933Z,98246.77
2022-12-05T11:09:14.706Z,98242.20
2022-12-05T11:11:46.042Z,98240.06
2022-12-05T11:14:26.456Z,98243.28
2022-12-05T11:16:57.719Z,98240.31
2022-12-05T11:19:33.347Z,98240.86
2022-12-05T11:22:02.997Z,98236.59
2022-12-05T11:24:34.630Z,98227.73
2022-12-05T11:27:23.073Z,98223.41
2022-12-05T11:30:15.984Z,98220.97
2022-12-05T11:32:43.562Z,98220.11
2022-12-05T11:35:26.025Z,98212.08
2022-12-05T11:38:02.500Z,98207.01
2022-12-05T11:40:54.074Z,98212.61
2022-12-05T11:44:03.713Z,98205.39
2022-12-05T11:46:45.598Z,98197.12
2022-12-05T11:49:55.125Z,98200.04
2022-12-05T11:53:12.992Z,98193.94
2022-12-05T11:55:58.337Z,98187.02
2022-12-05T11:58:54.423Z,98182.49
2022-12-05T12:02:18.795Z,98178.53
2022-12-05T12:05:13.000Z,98175.33
2022-12-05T12:07:58.359Z,98175.87
2022-12-05T12:10:57.482Z,98169.20
2022-12-05T12:13:45.215Z,98169.49
2022-12-05T12:16:36.668Z,98163.91
2022-12-05T12:19:28.217Z,98167.14
2022-12-05T12:22:30.445Z,98153.78
2022-12-05T12:25:33.455Z,98160.48
2022-12-05T12:28:21.816Z,98155.97
2022-12-05T12:30:57.858Z,98150.88
2022-12-05T12:33:46.213Z,98156.22
2022-12-05T12:36:43.919Z,98153.30
2022-12-05T12:39:22.585Z,98154.35
2022-12-05T12:42:23.518Z,98153.85
2022-12-05T12:45:26.154Z,98149.06
2022-12-05T12:48:39.020Z,98157.37
2022-12-05T12:51:11.755Z,98156.55
2022-12-05T12:54:06.360Z,98150.70
2022-12-05T12:57:10.649Z,98149.31
2022-12-05T13:00:13.126Z,98151.44
2022-12-05T13:02:51.064Z,98151.43
2022-12-05T13:05:36.383Z,98148.77
2022-12-05T13:08:35.153Z,98145.05
2022-12-05T13:11:08.570Z,98143.73
2022-12-05T13:13:43.793Z,98148.83
2022-12-05T13:16:19.347Z,98152.55
2022-12-05T13:18:47.111Z,98151.20
2022-12-05T13:21:15.177Z,98146.69
2022-12-05T13:23:49.916Z,98148.28
2022-12-05T13:26:18.159Z,98152.30
2022-12-05T13:28:56.965Z,98145.91
2022-12-05T13:31:45.534Z,98141.36
2022-12-05T13:34:40.389Z,98138.19
2022-12-05T13:37:39.830Z,98140.04
2022-12-05T13:40:51.260Z,98137.64
2022-12-05T13:43:23.669Z,98142.70
2022-12-05T13:46:09.126Z,98135.23
2022-12-05T13:48:42.510Z,98138.20
2022-12-05T13:51:16.150Z,98135.30
2022-12-05T13:53:52.750Z,98139.02
2022-12-05T13:56:28.105Z,98135.30
2022-12-05T13:58:57.906Z,98135.84
2022-12-05T14:01:50.356Z,98140.40
2022-12-05T14:04:50.179Z,98135.86
2022-12-05T14:07:41.408Z,98130.02
2022-12-05T14:10:14.942Z,98139.13
2022-12-05T14:12:53.794Z,98132.46
2022-12-05T14:15:31.818Z,98137.27
2022-12-05T14:18:30.368Z,98136.77
2022-12-05T14:21:16.768Z,98142.92
2022-12-05T14:24:25.326Z,98138.67
2022-12-05T14:27:13.773Z,98141.35
2022-12-05T14:30:30.143Z,98139.52
2022-12-05T14:33:01.769Z,98136.61
2022-12-05T14:35:45.670Z,98136.66
2022-12-05T14:38:29.316Z,98137.43
2022-12-05T14:41:13.074Z,98130.51
2022-12-05T14:43:42.464Z,98129.97
2022-12-05T14:46:25.534Z,98128.39
2022-12-05T14:48:55.661Z,98130.82
2022-12-05T14:51:38.095Z,98129.78
2022-12-05T14:54:18.010Z,98132.46
2022-12-05T14:57:08.727Z,98131.17
2022-12-05T14:59:56.370Z,98132.80
2022-12-05T15:02:38.411Z,98130.12
2022-12-05T15:05:24.339Z,98127.75
2022-12-05T15:07:56.905Z,98129.89
2022-12-05T15:10:37.854Z,98126.42
2022-12-05T15:13:20.314Z,98136.60
2022-12-05T15:16:14.640Z,98131.80
2022-12-05T15:18:57.235Z,98125.39
2022-12-05T15:21:47.209Z,98123.80
2022-12-05T15:24:21.213Z,98121.92
2022-12-05T15:26:58.915Z,98122.47
2022-12-05T15:29:32.001Z,98122.21
2022-12-05T15:32:08.350Z,98120.09
2022-12-05T15:34:43.486Z,98124.89
2022-12-05T15:37:25.813Z,98131.31
2022-12-05T15:40:13.739Z,98129.69
2022-12-05T15:42:48.295Z,98131.06
2022-12-05T15:45:29.044Z,98128.93
2022-12-05T15:48:11.419Z,98131.31
2022-12-05T15:50:47.444Z,98126.27
2022-12-05T15:53:30.064Z,98125.19
2022-12-05T15:56:23.810Z,98119.09
2022-12-05T15:59:03.231Z,98118.30
2022-12-05T16:01:37.310Z,98120.97
2022-12-05T16:04:37.275Z,98117.25
2022-12-05T16:07:09.513Z,98117.00
2022-12-05T16:09:41.860Z,98118.34
2022-12-05T16:12:27.512Z,98119.67
2022-12-05T16:15:01.623Z,98116.50
2022-12-05T16:17:40.703Z,98114.88
2022-12-05T16:20:29.117Z,98116.24
2022-12-05T16:23:05.909Z,98111.70
2022-12-05T16:25:36.697Z,98110.11
2022-12-05T16:28:16.182Z,98112.27
2022-12-05T16:31:01.834Z,98104.81
2022-12-05T16:33:32.068Z,98101.34
2022-12-05T16:36:10.888Z,98098.97
2022-12-05T16:38:40.483Z,98102.42
2022-12-05T16:41:08.930Z,98103.50
2022-12-05T16:43:42.208Z,98100.87
2022-12-05T16:46:20.249Z,98098.98
2022-12-05T16:49:10.419Z,98103.52
2022-12-05T16:51:45.658Z,98110.47
2022-12-05T16:54:15.048Z,98108.88
2022-12-05T16:56:42.924Z,98110.48
2022-12-05T16:59:16.258Z,98113.95
2022-12-05T17:01:44.472Z,98113.97
2022-12-05T17:04:12.460Z,98114.51
2022-12-05T17:06:42.500Z,98116.63
2022-12-05T17:09:10.508Z,98117.96
2022-12-05T17:11:43.029Z,98115.58
2022-12-05T17:14:16.276Z,98118.49
2022-12-05T17:16:45.033Z,98109.98
2022-12-05T17:19:13.737Z,98115.05
2022-12-05T17:21:43.384Z,98110.25
2022-12-05T17:24:18.759Z,98109.98
2022-12-05T17:26:47.296Z,98103.86
2022-12-05T17:29:14.970Z,98110.26
2022-12-05T17:31:43.009Z,98107.07
2022-12-05T17:34:18.186Z,98107.34
2022-12-05T17:36:46.196Z,98111.33
2022-12-05T17:39:13.983Z,98113.17
2022-12-05T17:41:42.260Z,98113.45
2022-12-05T17:44:14.238Z,98114.51
2022-12-05T17:46:48.168Z,98109.98
2022-12-05T17:49:25.634Z,98110.78
2022-12-05T17:52:21.497Z,98109.42
2022-12-05T17:54:39.625Z,98112.09
2022-12-05T17:57:07.364Z,98112.61
2022-12-05T17:59:35.654Z,98108.88
2022-12-05T18:02:06.195Z,98107.28
2022-12-05T18:04:34.396Z,98106.74
2022-12-05T18:07:05.538Z,98110.46
2022-12-05T18:09:35.384Z,98108.59
2022-12-05T18:12:03.781Z,98110.98
2022-12-05T18:14:33.478Z,98114.16
2022-12-05T18:17:03.367Z,98104.04
2022-12-05T18:19:31.428Z,98104.30
2022-12-05T18:21:59.439Z,98102.95
2022-12-05T18:24:28.375Z,98100.28
2022-12-05T18:26:56.449Z,98099.74
2022-12-05T18:29:24.982Z,98100.00
2022-12-05T18:31:53.267Z,98107.15
2022-12-05T18:34:21.576Z,98108.47
2022-12-05T18:36:49.858Z,98103.41
2022-12-05T18:39:18.307Z,98102.84
2022-12-05T18:41:47.970Z,98111.86
2022-12-05T18:44:19.141Z,98110.25
2022-12-05T18:46:47.085Z,98117.41
2022-12-05T18:49:15.229Z,98115.00
2022-12-05T18:51:47.759Z,98110.20
2022-12-05T18:54:17.658Z,98107.28
2022-12-05T18:56:49.837Z,98109.14
2022-12-05T18:59:20.627Z,98114.19
2022-12-05T19:01:50.524Z,98114.20
2022-12-05T19:04:21.058Z,98113.94
2022-12-05T19:06:58.744Z,98109.70
2022-12-05T19:09:30.445Z,98103.06
2022-12-05T19:12:00.635Z,98108.62
2022-12-05T19:14:32.099Z,98104.64
2022-12-05T19:17:02.142Z,98107.30
2022-12-05T19:19:30.689Z,98107.56
2022-12-05T19:21:58.795Z,98103.58
2022-12-05T19:24:27.890Z,98101.71
2022-12-05T19:26:56.279Z,98104.11
2022-12-05T19:29:24.337Z,98101.19
2022-12-05T19:31:52.891Z,98101.71
2022-12-05T19:34:22.014Z,98095.33
2022-12-05T19:36:51.336Z,98093.22
2022-12-05T19:39:26.722Z,98092.95
2022-12-05T19:41:56.884Z,98087.39
2022-12-05T19:44:26.625Z,98096.70
2022-12-05T19:46:54.676Z,98095.63
2022-12-05T19:49:23.178Z,98088.98
2022-12-05T19:51:52.329Z,98087.12
2022-12-05T19:54:22.094Z,98087.41
2022-12-05T19:56:51.466Z,98085.55
2022-12-05T19:59:19.656Z,98084.75
2022-12-05T20:01:47.670Z,98075.16
2022-12-05T20:04:16.917Z,98072.50
2022-12-05T20:06:50.160Z,98075.45
2022-12-05T20:09:21.748Z,98076.48
2022-12-05T20:11:55.558Z,98068.80
2022-12-05T20:14:25.124Z,98067.73
2022-12-05T20:16:53.927Z,98064.53
2022-12-05T20:19:23.729Z,98066.14
2022-12-05T20:21:52.300Z,98065.07
2022-12-05T20:24:20.236Z,98061.08
2022-12-05T20:26:49.031Z,98064.27
2022-12-05T20:29:16.670Z,98071.70
2022-12-05T20:31:47.497Z,98063.70
2022-12-05T20:34:17.202Z,98058.13
2022-12-05T20:36:51.826Z,98060.78
2022-12-05T20:39:20.144Z,98050.94
2022-12-05T20:41:49.963Z,98056.23
2022-12-05T20:44:20.928Z,98054.38
2022-12-05T20:46:50.584Z,98048.02
2022-12-05T20:49:20.128Z,98043.77
2022-12-05T20:51:50.198Z,98048.80
2022-12-05T20:54:27.782Z,98048.01
2022-12-05T20:56:58.252Z,98053.08
2022-12-05T20:59:25.910Z,98051.75
2022-12-05T21:01:53.950Z,98049.08
2022-12-05T21:04:21.835Z,98041.92
2022-12-05T21:06:49.753Z,98044.88
2022-12-05T21:09:25.191Z,98041.66
2022-12-05T21:11:56.527Z,98040.88
2022-12-05T21:14:24.809Z,98042.49
2022-12-05T21:16:53.237Z,98040.64
2022-12-05T21:19:21.137Z,98031.59
2022-12-05T21:21:53.083Z,98041.44
2022-12-05T21:24:22.783Z,98037.45
2022-12-05T21:26:51.382Z,98023.36
2022-12-05T21:29:19.466Z,98024.41
2022-12-05T21:31:50.326Z,98031.34
2022-12-05T21:34:21.062Z,98027.88
2022-12-05T21:36:49.542Z,98028.67
2022-12-05T21:39:17.338Z,98030.81
2022-12-05T21:41:45.480Z,98027.89
2022-12-05T21:44:16.654Z,98030.02
2022-12-05T21:46:44.426Z,98022.58
2022-12-05T21:49:12.695Z,98025.77
2022-12-05T21:51:40.842Z,98017.78
2022-12-05T21:54:08.910Z,98017.78
2022-12-05T21:56:38.435Z,98010.59
2022-12-05T21:59:06.200Z,98009.55
2022-12-05T22:01:34.332Z,98006.34
2022-12-05T22:04:02.927Z,98007.69
2022-12-05T22:06:33.008Z,98006.62
2022-12-05T22:09:01.092Z,98008.76
2022-12-05T22:11:29.579Z,98003.16
2022-12-05T22:13:57.822Z,98003.45
2022-12-05T22:16:32.785Z,98003.95
2022-12-05T22:18:57.008Z,97998.64
2022-12-05T22:21:26.580Z,97996.25
2022-12-05T22:23:54.427Z,97991.21
2022-12-05T22:26:25.764Z,97985.06
2022-12-05T22:28:56.713Z,97981.91
2022-12-05T22:31:24.694Z,97982.16
2022-12-05T22:33:52.640Z,97981.63
2022-12-05T22:36:21.051Z,97981.88
2022-12-05T22:38:49.421Z,97981.64
2022-12-05T22:41:21.427Z,97976.31
2022-12-05T22:43:56.335Z,97976.85
2022-12-05T22:46:26.024Z,97978.98
2022-12-05T22:48:54.354Z,97973.37
2022-12-05T22:51:23.145Z,97973.91
2022-12-05T22:53:52.575Z,97968.59
2022-12-05T22:56:22.982Z,97969.38
2022-12-05T22:58:54.716Z,97964.06
2022-12-05T23:01:32.265Z,97966.47
2022-12-05T23:04:08.860Z,97963.28
2022-12-05T23:06:38.348Z,97966.48
2022-12-05T23:09:09.171Z,97958.50
2022-12-05T23:11:37.809Z,97951.05
2022-12-05T23:14:07.731Z,97948.64
2022-12-05T23:16:36.940Z,97948.39
2022-12-05T23:19:05.844Z,97948.94
2022-12-05T23:21:39.225Z,97947.61
2022-12-05T23:24:10.971Z,97950.78
2022-12-05T23:26:44.945Z,97942.55
2022-12-05T23:29:14.066Z,97944.14
2022-12-05T23:31:43.206Z,97942.82
2022-12-05T23:34:11.437Z,97942.28
2022-12-05T23:36:39.540Z,97934.81
2022-12-05T23:39:07.174Z,97940.14
2022-12-05T23:41:34.925Z,97941.76
2022-12-05T23:44:03.437Z,97938.55
2022-12-05T23:46:31.255Z,97935.35
2022-12-05T23:48:58.983Z,97936.94
2022-12-05T23:51:29.769Z,97936.44
2022-12-05T23:54:01.100Z,97932.95
2022-12-05T23:56:32.858Z,97930.55
2022-12-05T23:59:03.368Z,97933.22
